Time;durP1;ratioP1;P1;durP2;ratioP2;P2;SDS_P1;SDS_P2;PMS_P1;PMS_P2;Temp;Humidity;BMP_temperature;BMP_pressure;BME280_temperature;BME280_humidity;BME280_pressure;Samples;Min_cycle;Max_cycle;Signal;HPM_P1;HPM_P2
2021/05/13 00:00:36;;;;;;;11.80;3.67;;;;;;;13.97;41.52;97718.69;125276;1100;103148;-71
2021/05/13 00:03:14;;;;;;;9.23;3.70;;;;;;;13.94;41.57;97723.51;125467;1104;102993;-71
2021/05/13 00:05:42;;;;;;;9.13;3.30;;;;;;;13.90;41.61;97728.36;125457;1100;102992;-71
2021/05/13 00:08:11;;;;;;;11.60;4.05;;;;;;;13.84;41.66;97727.20;125288;1107;103096;-70
2021/05/13 00:10:40;;;;;;;14.40;3.80;;;;;;;13.80;41.61;97719.66;125390;1100;103127;-72
2021/05/13 00:13:09;;;;;;;6.77;3.33;;;;;;;13.76;41.76;97721.84;125539;1100;103095;-71
2021/05/13 00:15:41;;;;;;;11.37;3.73;;;;;;;13.71;41.75;97713.48;125433;1107;103016;-71
2021/05/13 00:18:09;;;;;;;10.50;3.70;;;;;;;13.65;41.63;97711.47;125538;1104;103119;-72
2021/05/13 00:20:42;;;;;;;10.40;3.40;;;;;;;13.64;41.95;97709.79;125410;1107;103007;-71
2021/05/13 00:23:11;;;;;;;11.40;3.80;;;;;;;13.60;41.88;97713.78;125433;1107;103008;-71
2021/05/13 00:25:41;;;;;;;11.80;3.50;;;;;;;13.55;42.13;97706.28;125392;1100;103054;-72
2021/05/13 00:28:10;;;;;;;9.77;4.07;;;;;;;13.52;41.99;97703.94;125387;1107;103103;-71
2021/05/13 00:30:38;;;;;;;12.03;3.23;;;;;;;13.45;41.96;97711.74;125382;1107;103096;-70
2021/05/13 00:33:07;;;;;;;10.03;3.67;;;;;;;13.43;42.15;97702.23;125422;1107;103016;-69
2021/05/13 00:35:36;;;;;;;8.77;3.37;;;;;;;13.38;42.21;97698.19;125507;1104;102995;-69
2021/05/13 00:38:04;;;;;;;9.97;3.63;;;;;;;13.33;42.28;97699.69;125534;1104;103066;-70
2021/05/13 00:40:33;;;;;;;8.33;3.63;;;;;;;13.28;42.29;97702.83;125381;1108;103069;-70
2021/05/13 00:43:03;;;;;;;9.80;3.40;;;;;;;13.25;42.52;97693.31;125556;1104;102997;-71
2021/05/13 00:45:31;;;;;;;10.33;3.63;;;;;;;13.25;42.45;97692.47;125444;1099;103139;-70
2021/05/13 00:48:05;;;;;;;10.87;3.70;;;;;;;13.24;42.28;97696.17;125554;1104;103091;-72
2021/05/13 00:50:35;;;;;;;9.30;3.63;;;;;;;13.21;42.67;97691.15;125612;1104;103020;-71
2021/05/13 00:53:07;;;;;;;9.17;2.93;;;;;;;13.18;42.60;97694.14;125621;1104;103036;-71
2021/05/13 00:55:38;;;;;;;11.20;3.30;;;;;;;13.14;42.69;97692.79;125564;1104;103032;-72
2021/05/13 00:58:08;;;;;;;9.00;3.13;;;;;;;13.09;42.64;97694.11;125517;1104;103594;-71
2021/05/13 01:00:53;;;;;;;15.45;3.45;;;;;;;13.06;42.68;97691.76;125556;1099;103150;-71
2021/05/13 01:03:22;;;;;;;10.53;3.23;;;;;;;13.01;42.83;97691.41;125338;1100;103499;-70
2021/05/13 01:05:50;;;;;;;9.57;3.80;;;;;;;12.95;42.92;97684.89;125376;1099;103083;-71
2021/05/13 01:08:19;;;;;;;14.43;4.03;;;;;;;12.92;42.85;97682.53;125470;1099;103132;-72
2021/05/13 01:10:47;;;;;;;10.53;3.30;;;;;;;12.88;42.99;97673.17;125540;1104;102994;-72
2021/05/13 01:13:20;;;;;;;10.67;3.30;;;;;;;12.87;42.85;97674.17;125497;1104;103215;-71
2021/05/13 01:16:10;;;;;;;7.60;3.08;;;;;;;12.87;43.10;97665.31;125548;1099;103158;-71
2021/05/13 01:18:41;;;;;;;7.03;2.97;;;;;;;12.86;43.20;97663.64;125569;1100;103025;-71
2021/05/13 01:21:14;;;;;;;7.33;2.93;;;;;;;12.85;43.29;97675.31;125510;1104;103029;-72
2021/05/13 01:23:43;;;;;;;4.28;2.78;;;;;;;12.77;43.28;97666.30;125557;1100;103563;-71
2021/05/13 01:26:14;;;;;;;13.93;3.10;;;;;;;12.72;43.17;97660.61;125542;1099;103165;-71
2021/05/13 01:28:42;;;;;;;6.20;3.20;;;;;;;12.67;43.18;97654.91;126668;1107;103035;-71
2021/05/13 01:31:11;;;;;;;13.70;3.83;;;;;;;12.64;43.25;97660.56;125300;1105;102992;-71
2021/05/13 01:33:42;;;;;;;9.13;3.00;;;;;;;12.61;43.34;97663.55;125526;1104;103030;-72
2021/05/13 01:36:10;;;;;;;8.57;3.00;;;;;;;12.57;43.55;97663.05;125551;1104;103068;-72
2021/05/13 01:38:39;;;;;;;12.37;3.10;;;;;;;12.58;43.53;97661.20;125593;1104;103115;-73
2021/05/13 01:41:07;;;;;;;11.00;3.40;;;;;;;12.57;43.47;97652.38;125455;1104;103165;-73
2021/05/13 01:43:36;;;;;;;10.67;2.97;;;;;;;12.54;43.55;97647.36;125389;1107;103010;-74
2021/05/13 01:46:04;;;;;;;11.97;3.10;;;;;;;12.51;43.62;97643.16;125508;1100;103065;-73
2021/05/13 01:48:35;;;;;;;10.40;3.13;;;;;;;12.47;43.61;97630.31;125390;1107;103000;-71
2021/05/13 01:51:04;;;;;;;11.33;3.23;;;;;;;12.46;43.88;97633.97;125527;1104;103168;-70
2021/05/13 01:53:32;;;;;;;10.00;3.30;;;;;;;12.43;43.97;97631.63;125500;1100;103643;-71
2021/05/13 01:56:01;;;;;;;8.95;3.20;;;;;;;12.39;43.83;97635.59;125554;1104;103094;-70
2021/05/13 01:58:29;;;;;;;8.80;2.87;;;;;;;12.33;43.94;97631.75;125391;1107;103007;-70
2021/05/13 02:00:57;;;;;;;9.65;3.20;;;;;;;12.32;43.99;97627.41;125557;1104;103078;-70
2021/05/13 02:03:26;;;;;;;7.27;3.37;;;;;;;12.31;44.22;97623.06;125551;1104;103088;-69
2021/05/13 02:05:55;;;;;;;6.60;3.13;;;;;;;12.24;44.00;97628.17;125552;1104;103057;-69
2021/05/13 02:08:23;;;;;;;10.23;3.10;;;;;;;12.19;44.08;97625.17;125566;1100;103473;-70
2021/05/13 02:10:51;;;;;;;7.47;3.00;;;;;;;12.14;44.27;97628.29;125418;1107;103032;-71
2021/05/13 02:13:20;;;;;;;8.75;3.00;;;;;;;12.06;44.08;97614.91;125514;1100;102997;-71
2021/05/13 02:15:48;;;;;;;12.77;3.57;;;;;;;12.04;44.32;97627.55;125539;1104;103008;-72
2021/05/13 02:18:17;;;;;;;12.13;3.47;;;;;;;12.00;44.43;97618.22;125325;1107;103069;-71
2021/05/13 02:20:45;;;;;;;6.83;3.27;;;;;;;11.99;44.42;97613.86;125503;1100;103003;-71
2021/05/13 02:23:14;;;;;;;12.30;3.30;;;;;;;11.98;44.62;97617.52;125282;1107;103015;-70
2021/05/13 02:25:46;;;;;;;10.60;3.15;;;;;;;11.98;44.55;97614.84;125898;1099;103019;-70
2021/05/13 02:28:15;;;;;;;10.00;3.20;;;;;;;11.99;44.63;97612.05;125388;1107;103129;-70
2021/05/13 02:30:44;;;;;;;7.80;3.03;;;;;;;11.99;44.74;97605.86;125389;1100;103602;-70
2021/05/13 02:33:13;;;;;;;10.80;3.00;;;;;;;11.97;44.83;97600.67;125512;1104;102994;-70
2021/05/13 02:35:41;;;;;;;6.07;2.80;;;;;;;11.98;44.82;97609.52;125530;1104;103127;-70
2021/05/13 02:38:10;;;;;;;12.80;2.80;;;;;;;11.98;44.85;97594.35;125515;1100;103100;-69
2021/05/13 02:40:39;;;;;;;7.40;3.00;;;;;;;11.98;44.91;97588.20;125362;1100;104526;-69
2021/05/13 02:43:07;;;;;;;8.37;2.90;;;;;;;11.96;44.84;97583.02;125478;1104;103089;-70
2021/05/13 02:45:35;;;;;;;8.53;3.33;;;;;;;11.95;45.15;97584.00;125399;1107;103093;-71
2021/05/13 02:48:04;;;;;;;9.53;3.17;;;;;;;11.91;45.19;97585.30;125548;1104;103089;-69
2021/05/13 02:50:32;;;;;;;12.03;4.00;;;;;;;11.88;45.08;97585.62;125577;1104;103088;-70
2021/05/13 02:53:01;;;;;;;11.37;3.33;;;;;;;11.83;45.12;97586.09;125413;1107;103105;-70
2021/05/13 02:55:29;;;;;;;10.73;3.00;;;;;;;11.79;45.28;97586.58;125339;1107;103181;-70
2021/05/13 02:58:00;;;;;;;7.23;2.87;;;;;;;11.72;45.29;97587.20;125421;1107;103501;-70
2021/05/13 03:00:35;;;;;;;8.70;2.95;;;;;;;11.68;45.27;97583.17;125396;1107;103207;-69
2021/05/13 03:03:04;;;;;;;8.17;3.30;;;;;;;11.68;45.43;97577.84;125369;1107;103196;-69
2021/05/13 03:05:33;;;;;;;5.60;2.63;;;;;;;11.64;45.48;97573.81;125447;1099;103122;-70
2021/05/13 03:08:04;;;;;;;17.03;3.47;;;;;;;11.61;45.46;97571.45;125417;1107;103078;-70
2021/05/13 03:10:45;;;;;;;6.40;3.10;;;;;;;11.56;45.51;97574.59;125479;1107;103099;-70
2021/05/13 03:13:25;;;;;;;13.50;3.23;;;;;;;11.55;45.76;97564.08;125425;1107;103024;-71
2021/05/13 03:15:54;;;;;;;11.53;3.00;;;;;;;11.56;45.72;97571.08;125439;1107;103078;-71
2021/05/13 03:18:25;;;;;;;7.90;3.40;;;;;;;11.58;45.79;97569.10;125381;1107;103123;-70
2021/05/13 03:21:18;;;;;;;12.40;3.60;;;;;;;11.56;45.76;97569.27;125373;1107;103185;-71
2021/05/13 03:26:28;;;;;;;7.43;3.40;;;;;;;11.51;46.03;97563.57;125395;1099;103004;-72
2021/05/13 03:28:57;;;;;;;11.37;3.27;;;;;;;11.51;46.09;97554.73;125589;1104;103086;-72
2021/05/13 03:31:25;;;;;;;6.30;2.90;;;;;;;11.50;46.05;97559.23;125583;1100;103112;-71
2021/05/13 03:33:54;;;;;;;12.63;3.23;;;;;;;11.51;45.98;97560.05;125574;1100;103026;-71
2021/05/13 03:36:22;;;;;;;9.93;3.30;;;;;;;11.51;46.19;97558.25;125563;1104;103055;-71
2021/05/13 03:38:51;;;;;;;7.03;2.70;;;;;;;11.50;46.14;97566.37;125559;1104;103026;-71
2021/05/13 03:41:19;;;;;;;10.47;3.50;;;;;;;11.47;46.31;97568.34;125534;1104;103017;-70
2021/05/13 03:43:47;;;;;;;9.93;3.23;;;;;;;11.47;46.42;97556.88;125555;1104;103138;-71
2021/05/13 03:46:16;;;;;;;6.93;3.17;;;;;;;11.49;46.34;97562.89;125305;1107;103133;-71
2021/05/13 03:48:44;;;;;;;9.23;3.63;;;;;;;11.50;46.45;97551.25;125390;1107;102988;-70
2021/05/13 03:51:13;;;;;;;10.43;3.80;;;;;;;11.52;46.52;97556.41;125499;1104;103224;-71
2021/05/13 03:53:42;;;;;;;11.43;3.57;;;;;;;11.55;46.58;97553.43;125399;1107;103000;-70
2021/05/13 03:56:12;;;;;;;12.40;3.77;;;;;;;11.54;46.52;97549.95;125530;1104;103017;-72
2021/05/13 03:58:46;;;;;;;9.80;3.20;;;;;;;11.55;46.70;97553.43;125469;1104;103126;-71
2021/05/13 04:01:28;;;;;;;9.63;3.77;;;;;;;11.59;46.82;97550.33;125388;1100;102997;-71
2021/05/13 04:03:57;;;;;;;10.27;3.30;;;;;;;11.61;46.84;97545.64;125543;1100;103097;-71
2021/05/13 04:06:27;;;;;;;13.73;3.97;;;;;;;11.60;46.81;97548.48;125591;1104;103094;-72
2021/05/13 04:08:55;;;;;;;7.40;3.30;;;;;;;11.55;46.72;97540.97;125569;1104;103000;-71
2021/05/13 04:11:23;;;;;;;11.50;3.40;;;;;;;11.55;46.89;97534.80;125511;1104;103019;-72
2021/05/13 04:13:52;;;;;;;12.37;3.50;;;;;;;11.53;47.05;97539.44;125535;1100;103094;-72
2021/05/13 04:16:27;;;;;;;8.20;3.50;;;;;;;11.57;47.13;97538.14;125565;1104;103095;-73
2021/05/13 04:18:56;;;;;;;10.63;3.83;;;;;;;11.60;47.07;97538.68;125465;1100;103147;-70
2021/05/13 04:21:24;;;;;;;7.37;3.90;;;;;;;11.59;47.16;97536.16;125418;1107;103148;-72
2021/05/13 04:23:53;;;;;;;12.70;4.07;;;;;;;11.62;47.19;97536.67;125385;1107;102994;-71
2021/05/13 04:26:21;;;;;;;11.83;4.33;;;;;;;11.64;47.23;97523.21;125585;1100;103055;-71
2021/05/13 04:28:50;;;;;;;9.43;3.70;;;;;;;11.65;47.26;97535.53;125601;1100;103029;-73
2021/05/13 04:31:19;;;;;;;10.17;3.77;;;;;;;11.67;46.98;97524.72;125323;1105;103110;-72
2021/05/13 04:33:48;;;;;;;7.20;3.30;;;;;;;11.68;47.46;97532.56;125215;1100;103245;-71
2021/05/13 04:36:17;;;;;;;9.83;3.87;;;;;;;11.71;47.44;97528.73;125371;1105;103017;-71
2021/05/13 04:38:45;;;;;;;10.13;3.80;;;;;;;11.73;47.44;97524.94;125343;1100;103167;-71
2021/05/13 04:41:14;;;;;;;7.73;3.07;;;;;;;11.76;47.47;97526.44;125298;1098;103027;-70
2021/05/13 04:43:42;;;;;;;26.60;10.50;;;;;;;11.80;47.66;97524.32;125294;1107;103094;-73
2021/05/13 04:46:11;;;;;;;12.43;4.97;;;;;;;11.82;47.61;97514.34;125337;1105;103053;-70
2021/05/13 04:51:28;;;;;;;13.03;4.33;;;;;;;11.89;47.62;97513.55;125425;1104;103118;-70
2021/05/13 04:53:58;;;;;;;9.30;3.43;;;;;;;11.91;47.84;97511.55;125309;1107;103168;-70
2021/05/13 04:56:27;;;;;;;9.60;3.50;;;;;;;11.98;47.79;97510.92;125456;1104;102691;-71
2021/05/13 04:58:55;;;;;;;9.70;3.60;;;;;;;12.01;47.96;97513.30;125385;1104;103119;-71
2021/05/13 05:01:24;;;;;;;8.47;3.60;;;;;;;12.05;47.88;97517.30;125307;1107;103122;-74
2021/05/13 05:03:53;;;;;;;11.20;3.47;;;;;;;12.08;47.79;97516.16;125441;1100;103093;-72
2021/05/13 05:06:22;;;;;;;8.83;3.63;;;;;;;12.10;47.84;97514.98;125290;1107;103014;-70
2021/05/13 05:08:50;;;;;;;11.63;3.80;;;;;;;12.14;47.95;97515.53;125362;1107;103027;-69
2021/05/13 05:11:21;;;;;;;10.00;3.80;;;;;;;12.18;48.13;97512.38;125295;1107;103202;-71
2021/05/13 05:13:49;;;;;;;9.10;3.73;;;;;;;12.24;48.04;97505.55;125193;1107;103072;-73
2021/05/13 05:16:18;;;;;;;11.53;3.97;;;;;;;12.28;48.20;97506.08;125394;1100;103099;-72
2021/05/13 05:18:46;;;;;;;10.93;4.47;;;;;;;12.31;48.14;97503.91;125372;1099;103154;-73
2021/05/13 05:21:14;;;;;;;12.57;4.30;;;;;;;12.38;48.20;97506.79;125392;1100;103096;-74
2021/05/13 05:23:43;;;;;;;13.47;4.23;;;;;;;12.50;48.40;97502.80;125238;1100;103126;-78
2021/05/13 05:26:12;;;;;;;8.47;4.00;;;;;;;12.66;48.35;97499.34;125294;1104;103128;-72
2021/05/13 05:28:40;;;;;;;8.85;3.60;;;;;;;12.80;48.36;97502.38;125225;1104;103032;-71
2021/05/13 05:31:08;;;;;;;13.00;3.77;;;;;;;12.95;48.51;97494.55;125413;1100;103165;-72
2021/05/13 05:33:37;;;;;;;15.65;3.90;;;;;;;13.07;48.30;97492.38;125069;1107;101813;-70
2021/05/13 05:36:05;;;;;;;8.63;3.90;;;;;;;13.19;48.77;97492.91;125301;1104;103059;-70
2021/05/13 05:38:33;;;;;;;8.83;3.47;;;;;;;13.28;48.50;97485.72;125193;1107;103033;-71
2021/05/13 05:41:02;;;;;;;12.70;3.80;;;;;;;13.42;48.34;97485.08;125392;1104;103148;-70
2021/05/13 05:43:31;;;;;;;14.20;4.87;;;;;;;13.55;48.55;97493.39;125245;1100;103096;-74
2021/05/13 05:46:00;;;;;;;13.03;4.00;;;;;;;13.71;48.49;97491.70;125315;1105;103051;-72
2021/05/13 05:48:28;;;;;;;9.45;3.55;;;;;;;13.69;48.43;97483.84;125254;1107;103083;-73
2021/05/13 05:50:57;;;;;;;8.97;3.27;;;;;;;13.75;48.71;97479.67;125515;1100;103109;-74
2021/05/13 05:53:25;;;;;;;11.23;3.80;;;;;;;13.89;48.84;97480.80;125391;1100;103118;-74
2021/05/13 05:55:54;;;;;;;11.13;3.67;;;;;;;14.04;48.89;97480.09;125397;1107;103030;-74
2021/05/13 05:58:23;;;;;;;8.83;3.07;;;;;;;14.16;48.76;97484.03;125242;1107;103064;-74
2021/05/13 06:00:51;;;;;;;8.93;3.37;;;;;;;14.16;48.56;97483.21;125259;1107;102995;-76
2021/05/13 06:03:20;;;;;;;10.67;4.17;;;;;;;14.22;48.75;97485.20;125232;1107;103115;-74
2021/05/13 06:05:49;;;;;;;8.13;3.07;;;;;;;14.23;48.75;97489.54;125193;1100;103076;-75
2021/05/13 06:08:17;;;;;;;9.47;3.90;;;;;;;14.16;48.70;97496.58;125287;1105;102994;-74
2021/05/13 06:10:46;;;;;;;12.10;4.07;;;;;;;14.11;48.73;97492.58;125276;1100;103068;-74
2021/05/13 06:13:14;;;;;;;9.20;3.90;;;;;;;14.13;48.73;97495.92;125513;1100;103112;-74
2021/05/13 06:15:43;;;;;;;7.63;3.50;;;;;;;14.18;49.02;97495.39;125263;1107;103017;-74
2021/05/13 06:18:11;;;;;;;12.63;4.20;;;;;;;14.23;49.00;97487.69;125381;1107;103035;-74
2021/05/13 06:20:40;;;;;;;11.27;4.20;;;;;;;14.31;49.11;97494.00;125283;1107;103093;-76
2021/05/13 06:23:09;;;;;;;13.47;4.13;;;;;;;14.41;49.04;97494.63;125293;1100;103072;-76
2021/05/13 06:25:37;;;;;;;10.63;3.90;;;;;;;14.51;48.94;97489.88;125317;1107;103134;-74
2021/05/13 06:28:09;;;;;;;11.40;4.20;;;;;;;14.62;49.23;97487.81;125380;1107;102995;-75
2021/05/13 06:30:39;;;;;;;11.83;4.10;;;;;;;14.70;49.05;97488.63;125290;1107;103276;-73
2021/05/13 06:33:07;;;;;;;11.27;4.10;;;;;;;14.79;49.25;97485.91;125284;1107;103000;-75
2021/05/13 06:35:40;;;;;;;11.07;4.03;;;;;;;14.87;49.27;97485.85;125219;1107;102995;-74
2021/05/13 06:38:08;;;;;;;11.43;3.87;;;;;;;14.91;49.06;97489.84;125256;1107;102991;-75
2021/05/13 06:40:36;;;;;;;22.85;7.95;;;;;;;14.94;49.10;97492.16;125273;1100;103487;-75
2021/05/13 06:43:05;;;;;;;18.50;6.77;;;;;;;14.96;49.05;97494.65;125279;1107;103099;-73
2021/05/13 06:45:33;;;;;;;15.77;5.03;;;;;;;14.96;49.19;97487.47;125356;1104;103177;-74
2021/05/13 06:48:03;;;;;;;12.10;4.10;;;;;;;14.99;49.28;97488.94;125367;1104;103582;-73
2021/05/13 06:50:32;;;;;;;14.40;4.47;;;;;;;15.01;49.22;97495.80;125222;1107;103133;-74
2021/05/13 06:53:00;;;;;;;16.80;4.80;;;;;;;15.04;49.07;97489.23;125238;1104;103104;-76
2021/05/13 06:55:30;;;;;;;14.43;4.23;;;;;;;15.09;49.32;97486.02;125302;1107;103106;-74
2021/05/13 06:57:59;;;;;;;12.23;4.00;;;;;;;15.11;49.15;97482.16;125165;1105;104810;-73
2021/05/13 07:00:27;;;;;;;12.13;3.90;;;;;;;15.12;49.22;97481.15;125441;1104;103133;-74
2021/05/13 07:03:02;;;;;;;11.83;4.37;;;;;;;15.19;49.25;97475.89;125342;1099;103116;-74
2021/05/13 07:05:30;;;;;;;11.73;4.13;;;;;;;15.25;49.07;97472.50;125416;1104;103099;-72
2021/05/13 07:08:00;;;;;;;12.43;4.67;;;;;;;15.37;49.28;97477.43;125427;1104;103425;-74
2021/05/13 07:10:30;;;;;;;14.03;5.20;;;;;;;15.46;49.28;97470.98;125232;1100;103184;-73
2021/05/13 07:13:01;;;;;;;13.70;4.30;;;;;;;15.56;49.34;97463.49;125265;1107;103148;-82
2021/05/13 07:15:32;;;;;;;15.23;4.70;;;;;;;15.67;49.30;97467.59;125252;1107;103059;-78
2021/05/13 07:18:01;;;;;;;18.80;5.10;;;;;;;15.93;49.29;97461.78;124955;1100;103107;-76
2021/05/13 07:20:31;;;;;;;13.83;4.80;;;;;;;16.19;49.38;97462.31;125327;1099;102997;-75
2021/05/13 07:23:00;;;;;;;14.43;5.53;;;;;;;16.70;49.14;97458.80;125223;1100;103187;-74
2021/05/13 07:25:28;;;;;;;14.40;4.93;;;;;;;16.86;49.46;97464.92;125367;1099;103150;-76
2021/05/13 07:27:56;;;;;;;13.40;4.53;;;;;;;16.99;49.66;97457.03;125291;1105;103121;-76
2021/05/13 07:30:26;;;;;;;12.17;4.60;;;;;;;17.07;49.69;97461.44;125211;1100;103110;-74
2021/05/13 07:32:55;;;;;;;15.70;5.13;;;;;;;17.22;49.36;97459.52;125280;1104;103118;-74
2021/05/13 07:35:25;;;;;;;14.63;5.00;;;;;;;17.28;49.32;97452.52;125146;1100;102994;-74
2021/05/13 07:37:53;;;;;;;13.20;4.83;;;;;;;17.36;49.47;97456.91;125222;1107;103478;-73
2021/05/13 07:40:25;;;;;;;14.03;5.77;;;;;;;17.42;49.23;97461.52;125196;1107;103068;-74
2021/05/13 07:42:55;;;;;;;15.53;4.97;;;;;;;17.48;49.18;97459.92;125297;1104;103360;-76
2021/05/13 07:45:24;;;;;;;14.57;5.00;;;;;;;17.52;49.56;97450.44;125222;1105;104381;-74
2021/05/13 07:47:54;;;;;;;16.50;4.77;;;;;;;17.55;49.57;97456.24;125143;1105;103086;-75
2021/05/13 07:50:26;;;;;;;15.53;5.70;;;;;;;17.63;49.26;97446.37;125263;1104;103048;-74
2021/05/13 07:52:54;;;;;;;20.77;6.07;;;;;;;17.61;49.49;97451.92;125154;1100;103162;-75
2021/05/13 07:55:23;;;;;;;16.93;5.80;;;;;;;17.60;49.21;97455.64;125252;1100;103138;-75
2021/05/13 07:57:51;;;;;;;14.17;5.47;;;;;;;17.58;49.26;97454.19;125218;1107;103051;-74
2021/05/13 08:00:19;;;;;;;17.40;5.97;;;;;;;17.58;49.41;97446.13;125377;1100;103116;-74
2021/05/13 08:02:49;;;;;;;14.67;4.83;;;;;;;17.58;49.15;97451.50;125298;1104;103478;-81
2021/05/13 08:05:18;;;;;;;14.70;5.10;;;;;;;17.52;49.31;97453.94;125476;1104;103248;-75
2021/05/13 08:07:47;;;;;;;15.20;5.43;;;;;;;17.49;49.51;97456.20;125268;1104;103246;-74
2021/05/13 08:10:16;;;;;;;22.97;5.87;;;;;;;17.41;49.15;97449.09;125383;1104;103132;-77
2021/05/13 08:12:44;;;;;;;16.27;5.40;;;;;;;17.37;49.31;97451.36;125207;1107;103444;-77
2021/05/13 08:15:14;;;;;;;18.73;5.53;;;;;;;17.50;49.30;97455.18;125274;1107;102995;-76
2021/05/13 08:17:44;;;;;;;12.97;4.93;;;;;;;17.99;48.82;97448.05;125206;1107;103197;-73
2021/05/13 08:20:15;;;;;;;19.30;5.30;;;;;;;18.82;49.09;97448.95;125146;1107;103160;-75
2021/05/13 08:22:47;;;;;;;18.87;5.83;;;;;;;19.19;49.16;97444.05;125431;1104;103023;-75
2021/05/13 08:25:19;;;;;;;18.43;5.67;;;;;;;19.92;49.06;97445.03;125329;1107;103099;-76
2021/05/13 08:27:50;;;;;;;15.65;5.90;;;;;;;20.85;48.98;97444.84;125600;1104;102994;-76
2021/05/13 08:30:20;;;;;;;21.77;6.47;;;;;;;21.59;49.13;97446.98;125348;1107;103120;-78
2021/05/13 08:32:48;;;;;;;22.03;6.33;;;;;;;21.88;49.14;97440.03;125333;1100;103304;-76
2021/05/13 08:35:19;;;;;;;14.73;5.70;;;;;;;21.75;49.23;97448.30;125452;1104;103428;-78
2021/05/13 08:37:47;;;;;;;15.07;5.00;;;;;;;21.64;49.06;97457.96;125357;1107;103098;-81
2021/05/13 08:40:15;;;;;;;16.53;5.50;;;;;;;21.71;48.94;97448.75;125550;1100;103106;-77
2021/05/13 08:42:43;;;;;;;14.90;5.30;;;;;;;22.24;48.51;97451.09;125335;1100;103054;-78
2021/05/13 08:45:12;;;;;;;15.57;6.10;;;;;;;22.31;48.43;97451.84;125500;1104;103132;-78
2021/05/13 08:47:45;;;;;;;17.40;5.70;;;;;;;22.65;48.16;97451.42;125323;1106;103004;-76
2021/05/13 08:50:16;;;;;;;15.80;5.87;;;;;;;22.46;48.40;97454.18;125322;1100;103022;-77
2021/05/13 08:52:45;;;;;;;15.17;5.13;;;;;;;22.30;48.50;97451.00;125549;1104;103001;-76
2021/05/13 08:55:17;;;;;;;15.73;5.73;;;;;;;22.09;48.43;97449.58;125376;1107;103096;-77
2021/05/13 08:57:45;;;;;;;15.13;5.43;;;;;;;21.92;48.43;97448.55;125464;1104;103065;-74
2021/05/13 09:00:17;;;;;;;15.73;5.90;;;;;;;21.80;48.31;97454.69;125607;1104;103493;-74
2021/05/13 09:02:51;;;;;;;16.03;5.70;;;;;;;21.61;47.44;97458.38;125504;1104;103096;-73
2021/05/13 09:05:19;;;;;;;20.67;6.40;;;;;;;21.37;47.75;97453.61;125517;1104;103123;-75
2021/05/13 09:07:48;;;;;;;17.33;5.67;;;;;;;21.33;47.93;97448.84;125360;1104;102989;-78
2021/05/13 09:10:17;;;;;;;13.77;5.13;;;;;;;21.23;47.75;97452.87;125333;1099;103247;-78
2021/05/13 09:12:52;;;;;;;16.20;5.77;;;;;;;21.15;47.42;97447.76;125566;1104;103101;-74
2021/05/13 09:15:28;;;;;;;16.17;5.90;;;;;;;20.94;48.06;97457.87;125426;1100;102992;-74
2021/05/13 09:17:56;;;;;;;16.37;6.63;;;;;;;20.82;46.95;97454.20;125551;1100;103022;-77
2021/05/13 09:20:36;;;;;;;15.43;6.57;;;;;;;20.73;47.44;97456.30;125580;1100;103087;-77
2021/05/13 09:23:26;;;;;;;17.40;6.47;;;;;;;20.77;47.70;97451.34;125481;1104;103119;-78
2021/05/13 09:26:22;;;;;;;16.77;6.07;;;;;;;20.76;47.46;97445.06;125499;1100;103027;-79
2021/05/13 09:29:12;;;;;;;18.40;6.65;;;;;;;20.88;47.39;97452.52;125335;1100;103104;-72
2021/05/13 09:31:42;;;;;;;16.77;6.27;;;;;;;21.22;47.29;97437.69;125282;1105;104315;-74
2021/05/13 09:34:15;;;;;;;19.37;5.97;;;;;;;21.81;47.48;97437.41;125378;1100;103089;-76
2021/05/13 09:36:43;;;;;;;21.63;6.07;;;;;;;22.56;47.58;97435.51;125386;1104;103096;-75
2021/05/13 09:39:22;;;;;;;16.37;6.07;;;;;;;22.68;47.17;97440.13;125163;1107;103054;-76
2021/05/13 09:41:58;;;;;;;15.55;6.05;;;;;;;22.64;47.44;97439.77;125314;1100;103556;-75
2021/05/13 09:44:36;;;;;;;17.40;6.57;;;;;;;22.20;46.50;97447.18;125173;1100;102994;-76
2021/05/13 09:47:14;;;;;;;13.10;4.17;;;;;;;21.57;46.43;97430.95;125479;1100;103039;-77
2021/05/13 09:50:04;;;;;;;7.60;3.03;;;;;;;20.93;46.45;97442.70;125334;1100;103108;-76
2021/05/13 09:52:42;;;;;;;5.07;2.10;;;;;;;20.56;46.61;97430.86;125420;1102;102998;-76
2021/05/13 09:55:13;;;;;;;5.43;2.53;;;;;;;20.50;46.57;97436.08;125290;1107;103277;-75
2021/05/13 09:57:49;;;;;;;;;;;;;;;20.87;46.97;97437.34;125584;1104;103011;-76
2021/05/13 10:00:41;;;;;;;6.43;2.37;;;;;;;21.12;46.66;97427.38;125522;1104;103170;-75
2021/05/13 10:03:30;;;;;;;2.80;2.20;;;;;;;20.93;46.64;97425.67;125400;1104;103167;-73
2021/05/13 10:05:59;;;;;;;5.75;2.10;;;;;;;20.87;46.77;97435.46;125255;1104;102992;-75
2021/05/13 10:08:28;;;;;;;2.90;2.00;;;;;;;20.81;47.13;97428.22;125312;1100;103021;-73
2021/05/13 10:10:58;;;;;;;5.03;2.50;;;;;;;20.77;46.87;97429.73;125372;1104;103033;-74
2021/05/13 10:13:30;;;;;;;5.60;2.40;;;;;;;20.50;46.40;97432.53;125423;1104;103069;-76
2021/05/13 10:16:05;;;;;;;4.53;2.20;;;;;;;20.27;46.82;97430.36;125239;1107;103072;-77
2021/05/13 10:18:40;;;;;;;8.60;2.35;;;;;;;20.13;46.73;97434.98;125405;1107;102972;-77
2021/05/13 10:21:23;;;;;;;4.75;2.10;;;;;;;19.97;46.76;97431.70;125527;1104;103017;-73
2021/05/13 10:23:56;;;;;;;15.10;2.73;;;;;;;19.76;46.64;97430.92;125374;1105;102999;-75
2021/05/13 10:26:37;;;;;;;4.00;2.37;;;;;;;19.61;46.93;97431.16;125274;1100;102085;-74
2021/05/13 10:29:20;;;;;;;5.40;2.00;;;;;;;19.52;47.10;97440.50;125250;1107;103504;-74
2021/05/13 10:32:15;;;;;;;5.05;2.05;;;;;;;19.34;47.07;97439.29;125251;1100;103096;-82
2021/05/13 10:34:58;;;;;;;3.40;1.70;;;;;;;19.15;47.89;97435.56;125569;1100;103031;-79
2021/05/13 10:37:38;;;;;;;4.83;2.00;;;;;;;18.95;47.80;97431.98;125451;1104;103065;-77
2021/05/13 10:42:41;;;;;;;4.63;1.80;;;;;;;18.81;48.18;97431.14;125455;1104;103059;-77
2021/05/13 10:45:34;;;;;;;3.27;1.90;;;;;;;18.70;48.09;97432.58;125283;1107;103094;-76
2021/05/13 10:48:27;;;;;;;3.97;1.93;;;;;;;18.62;48.17;97430.06;125435;1100;103024;-83
2021/05/13 10:51:03;;;;;;;6.30;1.90;;;;;;;18.56;48.36;97427.15;125477;1104;103027;-79
2021/05/13 10:53:55;;;;;;;3.47;2.30;;;;;;;18.55;48.39;97428.18;125454;1104;103051;-76
2021/05/13 10:56:27;;;;;;;3.65;1.50;;;;;;;18.50;48.58;97422.58;125319;1107;103078;-74
2021/05/13 10:59:02;;;;;;;6.95;2.15;;;;;;;18.49;48.94;97426.30;125409;1105;103032;-78
2021/05/13 11:01:48;;;;;;;5.10;2.03;;;;;;;18.48;48.82;97419.25;125321;1107;103025;-80
2021/05/13 11:04:21;;;;;;;3.47;1.77;;;;;;;18.54;49.35;97414.94;125530;1104;103034;-79
2021/05/13 11:06:57;;;;;;;2.90;1.90;;;;;;;18.52;49.51;97414.31;125551;1104;103595;-77
2021/05/13 11:09:42;;;;;;;3.20;2.07;;;;;;;18.53;49.01;97416.78;125383;1105;103123;-75
2021/05/13 11:12:16;;;;;;;3.47;1.93;;;;;;;18.64;49.52;97419.92;125534;1100;102997;-75
2021/05/13 11:20:34;;;;;;;2.75;1.60;;;;;;;18.67;49.71;97411.44;125406;1100;103101;-74
2021/05/13 11:23:17;;;;;;;3.90;1.63;;;;;;;18.56;49.20;97413.69;125496;1104;103022;-74
2021/05/13 11:25:52;;;;;;;1.60;1.50;;;;;;;18.56;49.84;97416.38;125329;1107;102995;-76
2021/05/13 11:28:34;;;;;;;3.07;1.67;;;;;;;18.58;49.37;97408.08;125281;1107;103083;-77
2021/05/13 11:31:05;;;;;;;4.13;1.60;;;;;;;18.64;49.84;97407.27;125570;1104;103098;-75
2021/05/13 11:33:50;;;;;;;4.00;1.40;;;;;;;18.68;49.48;97400.45;125494;1104;103448;-73
2021/05/13 11:36:24;;;;;;;2.08;1.15;;;;;;;18.66;49.56;97397.13;125386;1104;103024;-75
2021/05/13 11:38:56;;;;;;;1.00;0.70;;;;;;;18.69;49.56;97396.72;125437;1104;103123;-74
2021/05/13 11:41:25;;;;;;;3.67;0.97;;;;;;;18.68;49.76;97405.02;125494;1104;103084;-73
2021/05/13 11:43:54;;;;;;;3.50;1.10;;;;;;;18.64;49.68;97401.89;125452;1100;103124;-75